createdAt,value
2023-03-21T00:04:40.921Z,20.53
2023-03-21T00:09:48.942Z,20.51
2023-03-21T00:14:54.014Z,20.52
2023-03-21T00:19:56.994Z,20.50
2023-03-21T00:25:02.588Z,20.52
2023-03-21T00:30:06.912Z,20.51
2023-03-21T00:35:43.934Z,20.46
2023-03-21T00:40:43.781Z,20.44
2023-03-21T00:45:52.423Z,20.44
2023-03-21T00:50:57.139Z,20.43
2023-03-21T00:56:01.913Z,20.43
2023-03-21T01:01:06.651Z,20.41
2023-03-21T01:06:13.377Z,20.46
2023-03-21T01:11:19.740Z,20.41
2023-03-21T01:16:22.867Z,20.44
2023-03-21T01:21:25.760Z,20.40
2023-03-21T01:26:30.459Z,20.39
2023-03-21T01:31:33.658Z,20.36
2023-03-21T01:36:36.851Z,20.36
2023-03-21T01:41:44.387Z,20.34
2023-03-21T01:47:03.589Z,20.34
2023-03-21T01:52:18.984Z,20.33
2023-03-21T01:57:40.393Z,20.33
2023-03-21T02:02:52.670Z,20.31
2023-03-21T02:07:55.706Z,20.30
2023-03-21T02:13:09.704Z,20.28
2023-03-21T02:18:18.308Z,20.30
2023-03-21T02:24:03.577Z,20.28
2023-03-21T02:29:17.868Z,20.26
2023-03-21T02:34:40.449Z,20.28
2023-03-21T02:39:52.046Z,20.24
2023-03-21T02:44:59.266Z,20.25
2023-03-21T02:50:09.268Z,20.25
2023-03-21T02:55:16.090Z,20.22
2023-03-21T03:00:21.621Z,20.23
2023-03-21T03:05:26.064Z,20.21
2023-03-21T03:10:40.831Z,20.20
2023-03-21T03:15:50.674Z,20.20
2023-03-21T03:20:59.002Z,20.20
2023-03-21T03:26:05.521Z,20.20
2023-03-21T03:31:11.996Z,20.17
2023-03-21T03:36:33.590Z,20.18
2023-03-21T03:42:07.933Z,20.17
2023-03-21T03:47:08.613Z,20.16
2023-03-21T03:52:14.764Z,20.12
2023-03-21T03:57:19.297Z,20.14
2023-03-21T04:02:22.187Z,20.12
2023-03-21T04:07:25.144Z,20.12
2023-03-21T04:12:29.326Z,20.12
2023-03-21T04:17:33.122Z,20.11
2023-03-21T04:22:36.027Z,20.10
2023-03-21T04:27:40.281Z,20.08
2023-03-21T04:32:43.142Z,20.07
2023-03-21T04:37:46.001Z,20.05
2023-03-21T04:42:50.380Z,20.05
2023-03-21T04:47:53.288Z,20.04
2023-03-21T04:52:56.175Z,20.04
2023-03-21T04:58:01.293Z,20.05
2023-03-21T05:03:05.038Z,20.04
2023-03-21T05:08:07.890Z,20.02
2023-03-21T05:13:12.113Z,20.01
2023-03-21T05:18:15.307Z,20.00
2023-03-21T05:23:18.550Z,19.98
2023-03-21T05:28:22.773Z,19.98
2023-03-21T05:33:25.593Z,19.97
2023-03-21T05:38:28.417Z,19.97
2023-03-21T05:43:32.537Z,19.98
2023-03-21T05:48:35.850Z,20.02
2023-03-21T05:53:38.727Z,20.03
2023-03-21T05:58:43.032Z,20.10
2023-03-21T06:03:46.042Z,20.12
2023-03-21T06:08:49.153Z,20.09
2023-03-21T06:13:53.297Z,20.10
2023-03-21T06:18:56.268Z,20.10
2023-03-21T06:23:59.058Z,20.11
2023-03-21T06:29:03.226Z,20.12
2023-03-21T06:34:06.104Z,20.13
2023-03-21T06:39:10.572Z,20.14
2023-03-21T06:44:14.738Z,20.16
2023-03-21T06:49:17.894Z,20.16
2023-03-21T06:54:21.170Z,20.20
2023-03-21T06:59:25.362Z,20.20
2023-03-21T07:04:28.311Z,20.21
2023-03-21T07:09:31.534Z,20.23
2023-03-21T07:14:35.722Z,20.24
2023-03-21T07:19:38.726Z,20.27
2023-03-21T07:24:41.602Z,20.28
2023-03-21T07:29:47.319Z,20.30
2023-03-21T07:34:50.112Z,20.33
2023-03-21T07:39:53.224Z,20.37
2023-03-21T07:44:57.603Z,20.35
2023-03-21T07:50:00.805Z,20.38
2023-03-21T07:55:03.765Z,20.39
2023-03-21T08:00:10.928Z,20.40
2023-03-21T08:05:13.794Z,20.40
2023-03-21T08:10:17.009Z,20.40
2023-03-21T08:15:21.627Z,20.44
2023-03-21T08:20:24.596Z,20.43
2023-03-21T08:25:27.422Z,20.47
2023-03-21T08:30:31.771Z,20.49
2023-03-21T08:35:34.931Z,20.72
2023-03-21T08:40:38.172Z,20.78
2023-03-21T08:45:42.595Z,20.84
2023-03-21T08:50:45.607Z,20.83
2023-03-21T08:55:50.279Z,20.82
2023-03-21T09:00:54.466Z,21.09
2023-03-21T09:05:59.045Z,21.21
2023-03-21T09:11:01.961Z,21.35
2023-03-21T09:16:06.936Z,21.19
2023-03-21T09:21:12.759Z,21.19
2023-03-21T09:26:16.269Z,21.29
2023-03-21T09:31:22.854Z,21.17
2023-03-21T09:36:27.273Z,21.12
2023-03-21T09:41:40.442Z,21.08
2023-03-21T09:46:48.465Z,21.09
2023-03-21T09:51:52.833Z,21.08
2023-03-21T09:56:58.154Z,21.07
2023-03-21T10:02:03.295Z,21.09
2023-03-21T10:07:07.909Z,21.09
2023-03-21T10:12:15.467Z,21.09
2023-03-21T10:17:27.301Z,21.11
2023-03-21T10:22:30.545Z,21.09
2023-03-21T10:27:34.245Z,21.10
2023-03-21T10:32:38.458Z,21.13
2023-03-21T10:37:41.393Z,21.13
2023-03-21T10:42:44.776Z,21.16
2023-03-21T10:47:50.590Z,21.16
2023-03-21T10:53:00.407Z,21.15
2023-03-21T10:58:08.374Z,21.20
2023-03-21T11:03:22.774Z,21.22
2023-03-21T11:08:27.301Z,21.24
2023-03-21T11:13:35.480Z,21.28
2023-03-21T11:18:43.382Z,21.41
2023-03-21T11:23:48.132Z,21.46
2023-03-21T11:28:51.370Z,21.47
2023-03-21T11:33:59.938Z,21.66
2023-03-21T11:39:14.373Z,21.52
2023-03-21T11:44:29.168Z,21.52
2023-03-21T11:49:33.442Z,21.56
2023-03-21T11:54:44.247Z,21.63
2023-03-21T11:59:53.198Z,21.66
2023-03-21T12:05:01.426Z,21.62
2023-03-21T12:10:22.126Z,21.63
2023-03-21T12:15:29.417Z,21.60
2023-03-21T12:20:41.010Z,21.60
2023-03-21T12:25:48.772Z,21.63
2023-03-21T12:30:59.961Z,21.60
2023-03-21T12:36:18.395Z,21.57
2023-03-21T12:41:25.582Z,21.73
2023-03-21T12:46:31.697Z,21.87
2023-03-21T12:51:38.356Z,21.84
2023-03-21T12:56:48.266Z,21.95
2023-03-21T13:01:54.639Z,22.04
2023-03-21T13:07:01.868Z,22.22
2023-03-21T13:12:09.914Z,22.27
2023-03-21T13:17:16.363Z,22.40
2023-03-21T13:22:24.573Z,22.45
2023-03-21T13:27:30.274Z,22.47
2023-03-21T13:32:35.243Z,22.56
2023-03-21T13:37:41.001Z,22.57
2023-03-21T13:42:45.969Z,22.18
2023-03-21T13:47:54.892Z,22.37
2023-03-21T13:53:35.476Z,22.25
2023-03-21T13:58:40.692Z,22.30
2023-03-21T14:03:46.014Z,22.28
2023-03-21T14:08:50.675Z,22.27
2023-03-21T14:13:54.954Z,22.29
2023-03-21T14:19:00.835Z,22.27
2023-03-21T14:24:07.133Z,22.30
2023-03-21T14:29:26.072Z,22.43
2023-03-21T14:34:31.752Z,22.68
2023-03-21T14:39:38.011Z,22.72
2023-03-21T14:44:58.674Z,22.64
2023-03-21T14:55:16.862Z,22.75
2023-03-21T15:00:24.745Z,22.72
2023-03-21T15:05:30.980Z,22.68
2023-03-21T15:10:37.940Z,22.72
2023-03-21T15:15:42.078Z,22.84
2023-03-21T15:20:47.940Z,22.74
2023-03-21T15:25:52.194Z,22.65
2023-03-21T15:30:56.399Z,22.72
2023-03-21T15:36:00.686Z,22.85
2023-03-21T15:41:28.772Z,23.00
2023-03-21T15:46:41.442Z,22.70
2023-03-21T15:51:46.574Z,23.03
2023-03-21T15:56:54.685Z,22.78
2023-03-21T16:01:57.704Z,22.72
2023-03-21T16:07:03.045Z,22.92
2023-03-21T16:12:12.036Z,22.71
2023-03-21T16:17:33.148Z,22.81
2023-03-21T16:22:36.106Z,22.71
2023-03-21T16:27:40.629Z,22.54
2023-03-21T16:32:43.467Z,22.50
2023-03-21T16:37:48.022Z,22.67
2023-03-21T16:42:52.171Z,22.71
2023-03-21T16:47:55.086Z,22.90
2023-03-21T16:52:58.769Z,22.97
2023-03-21T16:58:04.544Z,22.80
2023-03-21T17:03:15.311Z,22.63
2023-03-21T17:08:19.874Z,22.58
2023-03-21T17:13:24.090Z,22.63
2023-03-21T17:18:26.930Z,22.51
2023-03-21T17:23:29.827Z,22.52
2023-03-21T17:28:33.998Z,22.31
2023-03-21T17:33:36.818Z,22.16
2023-03-21T17:38:39.622Z,22.07
2023-03-21T17:43:43.992Z,21.96
2023-03-21T17:48:47.095Z,21.87
2023-03-21T17:53:51.154Z,21.84
2023-03-21T17:58:56.830Z,21.77
2023-03-21T18:04:02.439Z,21.71
2023-03-21T18:09:11.077Z,21.67
2023-03-21T18:14:19.194Z,21.64
2023-03-21T18:19:23.114Z,21.64
2023-03-21T18:24:26.047Z,21.62
2023-03-21T18:30:22.885Z,21.58
2023-03-21T18:34:54.120Z,21.57
2023-03-21T18:39:56.978Z,21.55
2023-03-21T18:45:01.174Z,21.53
2023-03-21T18:50:14.421Z,21.49
2023-03-21T18:55:18.700Z,21.46
2023-03-21T19:00:23.675Z,21.42
2023-03-21T19:05:27.350Z,21.40
2023-03-21T19:10:31.272Z,21.40
2023-03-21T19:15:35.810Z,21.38
2023-03-21T19:20:40.065Z,21.36
2023-03-21T19:25:43.881Z,21.32
2023-03-21T19:30:50.574Z,21.31
2023-03-21T19:36:10.829Z,21.29
2023-03-21T19:41:16.536Z,21.27
2023-03-21T19:46:23.106Z,21.27
2023-03-21T19:51:30.118Z,21.25
2023-03-21T19:56:34.802Z,21.24
2023-03-21T20:01:39.192Z,21.23
2023-03-21T20:06:42.041Z,21.20
2023-03-21T20:11:44.918Z,21.19
2023-03-21T20:16:49.179Z,21.17
2023-03-21T20:21:58.818Z,21.16
2023-03-21T20:27:02.867Z,21.16
2023-03-21T20:32:07.740Z,21.15
2023-03-21T20:37:11.402Z,21.14
2023-03-21T20:42:14.332Z,21.14
2023-03-21T20:47:18.607Z,21.13
2023-03-21T20:57:45.001Z,21.12
2023-03-21T21:02:50.814Z,21.11
2023-03-21T21:07:54.033Z,21.10
2023-03-21T21:12:57.224Z,21.09
2023-03-21T21:18:06.027Z,21.08
2023-03-21T21:23:10.487Z,21.07
2023-03-21T21:28:14.464Z,21.06
2023-03-21T21:33:21.031Z,21.07
2023-03-21T21:38:25.041Z,21.07
2023-03-21T21:43:28.784Z,21.07
2023-03-21T21:48:34.202Z,21.06
2023-03-21T21:53:38.945Z,21.06
2023-03-21T21:58:48.296Z,21.04
2023-03-21T22:03:53.032Z,21.03
2023-03-21T22:08:56.962Z,21.03
2023-03-21T22:14:00.226Z,21.03
2023-03-21T22:19:04.919Z,21.02
2023-03-21T22:24:08.582Z,21.01
2023-03-21T22:29:11.850Z,21.00
2023-03-21T22:34:16.499Z,21.01
2023-03-21T22:39:20.110Z,21.00
2023-03-21T22:44:23.352Z,20.98
2023-03-21T22:49:27.937Z,20.99
2023-03-21T22:54:31.460Z,20.96
2023-03-21T22:59:34.649Z,20.98
2023-03-21T23:04:39.499Z,20.95
2023-03-21T23:09:42.712Z,20.95
2023-03-21T23:14:45.872Z,20.95
2023-03-21T23:19:50.454Z,20.93
2023-03-21T23:24:53.656Z,20.93
2023-03-21T23:29:57.771Z,20.91
2023-03-21T23:35:02.361Z,20.90
2023-03-21T23:40:07.124Z,20.91
2023-03-21T23:45:10.756Z,20.89
2023-03-21T23:50:14.942Z,20.89
2023-03-21T23:55:17.930Z,20.87
